sensor_id;sensor_type;location;lat;lon;timestamp;P1;durP1;ratioP1;P2;durP2;ratioP2
32319;SDS011;19080;51.750;5.888;2023-11-19T00:01:05;7.85;;;6.57;;
32319;SDS011;19080;51.750;5.888;2023-11-19T00:03:32;8.38;;;6.45;;
32319;SDS011;19080;51.750;5.888;2023-11-19T00:06:00;8.30;;;6.70;;
32319;SDS011;19080;51.750;5.888;2023-11-19T00:08:27;6.60;;;5.72;;
32319;SDS011;19080;51.750;5.888;2023-11-19T00:10:54;9.55;;;6.43;;
32319;SDS011;19080;51.750;5.888;2023-11-19T00:13:20;7.80;;;5.93;;
32319;SDS011;19080;51.750;5.888;2023-11-19T00:15:48;8.02;;;6.10;;
32319;SDS011;19080;51.750;5.888;2023-11-19T00:18:14;8.50;;;5.88;;
32319;SDS011;19080;51.750;5.888;2023-11-19T00:20:42;6.28;;;5.57;;
32319;SDS011;19080;51.750;5.888;2023-11-19T00:23:11;9.32;;;6.32;;
32319;SDS011;19080;51.750;5.888;2023-11-19T00:25:37;8.07;;;6.40;;
32319;SDS011;19080;51.750;5.888;2023-11-19T00:28:05;8.38;;;5.50;;
32319;SDS011;19080;51.750;5.888;2023-11-19T00:30:31;9.80;;;6.53;;
32319;SDS011;19080;51.750;5.888;2023-11-19T00:32:58;8.93;;;6.72;;
32319;SDS011;19080;51.750;5.888;2023-11-19T00:35:25;9.88;;;6.82;;
32319;SDS011;19080;51.750;5.888;2023-11-19T00:37:52;9.35;;;7.35;;
32319;SDS011;19080;51.750;5.888;2023-11-19T00:40:20;10.98;;;7.60;;
32319;SDS011;19080;51.750;5.888;2023-11-19T00:42:49;9.57;;;7.10;;
32319;SDS011;19080;51.750;5.888;2023-11-19T00:45:16;12.48;;;7.78;;
32319;SDS011;19080;51.750;5.888;2023-11-19T00:47:43;9.60;;;7.30;;
32319;SDS011;19080;51.750;5.888;2023-11-19T00:50:09;12.60;;;7.40;;
32319;SDS011;19080;51.750;5.888;2023-11-19T00:52:37;11.85;;;7.30;;
32319;SDS011;19080;51.750;5.888;2023-11-19T00:55:04;9.80;;;6.82;;
32319;SDS011;19080;51.750;5.888;2023-11-19T00:57:32;13.77;;;6.80;;
32319;SDS011;19080;51.750;5.888;2023-11-19T00:59:59;10.65;;;6.90;;
32319;SDS011;19080;51.750;5.888;2023-11-19T01:02:26;11.32;;;6.60;;
32319;SDS011;19080;51.750;5.888;2023-11-19T01:04:53;9.55;;;6.13;;
32319;SDS011;19080;51.750;5.888;2023-11-19T01:07:19;11.05;;;6.45;;
32319;SDS011;19080;51.750;5.888;2023-11-19T01:09:48;13.00;;;6.45;;
32319;SDS011;19080;51.750;5.888;2023-11-19T01:12:15;14.07;;;6.88;;
32319;SDS011;19080;51.750;5.888;2023-11-19T01:14:44;16.55;;;6.18;;
32319;SDS011;19080;51.750;5.888;2023-11-19T01:17:11;12.68;;;6.28;;
32319;SDS011;19080;51.750;5.888;2023-11-19T01:19:38;12.50;;;6.07;;
32319;SDS011;19080;51.750;5.888;2023-11-19T01:22:04;14.98;;;6.55;;
32319;SDS011;19080;51.750;5.888;2023-11-19T01:24:32;13.05;;;6.32;;
32319;SDS011;19080;51.750;5.888;2023-11-19T01:26:59;16.25;;;6.95;;
32319;SDS011;19080;51.750;5.888;2023-11-19T01:29:26;20.25;;;6.90;;
32319;SDS011;19080;51.750;5.888;2023-11-19T01:31:53;15.98;;;6.40;;
32319;SDS011;19080;51.750;5.888;2023-11-19T01:34:19;15.82;;;6.07;;
32319;SDS011;19080;51.750;5.888;2023-11-19T01:36:46;14.38;;;5.45;;
32319;SDS011;19080;51.750;5.888;2023-11-19T01:39:15;14.13;;;6.07;;
32319;SDS011;19080;51.750;5.888;2023-11-19T01:41:46;18.23;;;5.53;;
32319;SDS011;19080;51.750;5.888;2023-11-19T01:44:13;11.05;;;5.38;;
32319;SDS011;19080;51.750;5.888;2023-11-19T01:46:44;19.88;;;6.68;;
32319;SDS011;19080;51.750;5.888;2023-11-19T01:49:14;16.27;;;5.97;;
32319;SDS011;19080;51.750;5.888;2023-11-19T01:51:42;19.48;;;5.45;;
32319;SDS011;19080;51.750;5.888;2023-11-19T01:54:09;20.30;;;5.68;;
32319;SDS011;19080;51.750;5.888;2023-11-19T01:56:37;14.48;;;4.72;;
32319;SDS011;19080;51.750;5.888;2023-11-19T01:59:08;17.63;;;5.82;;
32319;SDS011;19080;51.750;5.888;2023-11-19T02:01:36;19.35;;;4.55;;
32319;SDS011;19080;51.750;5.888;2023-11-19T02:04:07;11.73;;;4.00;;
32319;SDS011;19080;51.750;5.888;2023-11-19T02:06:39;9.77;;;3.58;;
32319;SDS011;19080;51.750;5.888;2023-11-19T02:09:09;11.70;;;4.15;;
32319;SDS011;19080;51.750;5.888;2023-11-19T02:11:36;19.45;;;5.57;;
32319;SDS011;19080;51.750;5.888;2023-11-19T02:14:06;19.60;;;5.10;;
32319;SDS011;19080;51.750;5.888;2023-11-19T02:16:33;19.25;;;4.63;;
32319;SDS011;19080;51.750;5.888;2023-11-19T02:19:00;18.88;;;5.57;;
32319;SDS011;19080;51.750;5.888;2023-11-19T02:21:27;18.60;;;4.20;;
32319;SDS011;19080;51.750;5.888;2023-11-19T02:23:54;16.45;;;4.50;;
32319;SDS011;19080;51.750;5.888;2023-11-19T02:26:37;17.17;;;4.57;;
32319;SDS011;19080;51.750;5.888;2023-11-19T02:29:07;16.65;;;4.60;;
32319;SDS011;19080;51.750;5.888;2023-11-19T02:31:34;19.38;;;4.20;;
32319;SDS011;19080;51.750;5.888;2023-11-19T02:34:01;16.10;;;3.60;;
32319;SDS011;19080;51.750;5.888;2023-11-19T02:36:29;19.45;;;4.10;;
32319;SDS011;19080;51.750;5.888;2023-11-19T02:38:58;15.77;;;3.97;;
32319;SDS011;19080;51.750;5.888;2023-11-19T02:41:25;15.82;;;4.35;;
32319;SDS011;19080;51.750;5.888;2023-11-19T02:43:51;20.15;;;4.00;;
32319;SDS011;19080;51.750;5.888;2023-11-19T02:46:18;21.38;;;4.65;;
32319;SDS011;19080;51.750;5.888;2023-11-19T02:48:45;23.52;;;6.30;;
32319;SDS011;19080;51.750;5.888;2023-11-19T02:51:12;21.98;;;4.88;;
32319;SDS011;19080;51.750;5.888;2023-11-19T02:53:39;22.08;;;4.78;;
32319;SDS011;19080;51.750;5.888;2023-11-19T02:56:06;26.13;;;4.93;;
32319;SDS011;19080;51.750;5.888;2023-11-19T02:58:51;22.27;;;5.30;;
32319;SDS011;19080;51.750;5.888;2023-11-19T03:01:22;30.08;;;5.47;;
32319;SDS011;19080;51.750;5.888;2023-11-19T03:03:59;23.63;;;4.63;;
32319;SDS011;19080;51.750;5.888;2023-11-19T03:06:28;28.30;;;5.97;;
32319;SDS011;19080;51.750;5.888;2023-11-19T03:08:55;23.63;;;4.50;;
32319;SDS011;19080;51.750;5.888;2023-11-19T03:11:22;19.33;;;4.90;;
32319;SDS011;19080;51.750;5.888;2023-11-19T03:13:48;22.90;;;4.88;;
32319;SDS011;19080;51.750;5.888;2023-11-19T03:16:15;20.75;;;4.85;;
32319;SDS011;19080;51.750;5.888;2023-11-19T03:18:43;28.98;;;5.53;;
32319;SDS011;19080;51.750;5.888;2023-11-19T03:21:10;29.30;;;5.55;;
32319;SDS011;19080;51.750;5.888;2023-11-19T03:23:36;28.25;;;5.38;;
32319;SDS011;19080;51.750;5.888;2023-11-19T03:26:03;28.65;;;5.15;;
32319;SDS011;19080;51.750;5.888;2023-11-19T03:28:32;33.40;;;5.95;;
32319;SDS011;19080;51.750;5.888;2023-11-19T03:30:58;32.92;;;6.18;;
32319;SDS011;19080;51.750;5.888;2023-11-19T03:33:25;36.90;;;6.28;;
32319;SDS011;19080;51.750;5.888;2023-11-19T03:35:54;38.47;;;6.28;;
32319;SDS011;19080;51.750;5.888;2023-11-19T03:38:23;28.85;;;5.75;;
32319;SDS011;19080;51.750;5.888;2023-11-19T03:40:51;34.92;;;6.45;;
32319;SDS011;19080;51.750;5.888;2023-11-19T03:43:17;29.67;;;5.35;;
32319;SDS011;19080;51.750;5.888;2023-11-19T03:45:45;33.50;;;5.45;;
32319;SDS011;19080;51.750;5.888;2023-11-19T03:48:13;23.40;;;5.05;;
32319;SDS011;19080;51.750;5.888;2023-11-19T03:50:42;32.05;;;6.60;;
32319;SDS011;19080;51.750;5.888;2023-11-19T03:53:09;28.63;;;6.20;;
32319;SDS011;19080;51.750;5.888;2023-11-19T03:55:36;33.58;;;6.93;;
32319;SDS011;19080;51.750;5.888;2023-11-19T03:58:03;28.85;;;6.25;;
32319;SDS011;19080;51.750;5.888;2023-11-19T04:00:30;26.83;;;6.07;;
32319;SDS011;19080;51.750;5.888;2023-11-19T04:02:58;32.72;;;5.80;;
32319;SDS011;19080;51.750;5.888;2023-11-19T04:05:24;40.85;;;7.85;;
32319;SDS011;19080;51.750;5.888;2023-11-19T04:07:51;35.88;;;6.97;;
32319;SDS011;19080;51.750;5.888;2023-11-19T04:10:18;28.55;;;5.82;;
32319;SDS011;19080;51.750;5.888;2023-11-19T04:12:45;37.47;;;6.00;;
32319;SDS011;19080;51.750;5.888;2023-11-19T04:15:11;29.95;;;5.85;;
32319;SDS011;19080;51.750;5.888;2023-11-19T04:17:38;34.65;;;5.80;;
32319;SDS011;19080;51.750;5.888;2023-11-19T04:20:05;24.63;;;5.47;;
32319;SDS011;19080;51.750;5.888;2023-11-19T04:22:37;32.33;;;5.73;;
32319;SDS011;19080;51.750;5.888;2023-11-19T04:25:03;34.38;;;5.72;;
32319;SDS011;19080;51.750;5.888;2023-11-19T04:27:31;31.13;;;6.43;;
32319;SDS011;19080;51.750;5.888;2023-11-19T04:29:57;34.80;;;6.28;;
32319;SDS011;19080;51.750;5.888;2023-11-19T04:32:24;37.35;;;7.13;;
32319;SDS011;19080;51.750;5.888;2023-11-19T04:34:53;29.48;;;5.80;;
32319;SDS011;19080;51.750;5.888;2023-11-19T04:37:19;35.30;;;6.65;;
32319;SDS011;19080;51.750;5.888;2023-11-19T04:39:46;34.25;;;6.55;;
32319;SDS011;19080;51.750;5.888;2023-11-19T04:42:13;41.50;;;6.82;;
32319;SDS011;19080;51.750;5.888;2023-11-19T04:44:43;33.85;;;6.55;;
32319;SDS011;19080;51.750;5.888;2023-11-19T04:47:10;35.35;;;6.65;;
32319;SDS011;19080;51.750;5.888;2023-11-19T04:49:39;29.75;;;5.82;;
32319;SDS011;19080;51.750;5.888;2023-11-19T04:52:09;33.10;;;6.68;;
32319;SDS011;19080;51.750;5.888;2023-11-19T04:54:36;45.58;;;7.68;;
32319;SDS011;19080;51.750;5.888;2023-11-19T04:57:07;39.20;;;7.18;;
32319;SDS011;19080;51.750;5.888;2023-11-19T04:59:36;38.25;;;7.25;;
32319;SDS011;19080;51.750;5.888;2023-11-19T05:02:03;34.28;;;6.60;;
32319;SDS011;19080;51.750;5.888;2023-11-19T05:04:30;40.58;;;6.78;;
32319;SDS011;19080;51.750;5.888;2023-11-19T05:06:57;32.88;;;6.03;;
32319;SDS011;19080;51.750;5.888;2023-11-19T05:09:24;33.13;;;6.38;;
32319;SDS011;19080;51.750;5.888;2023-11-19T05:11:51;39.05;;;7.38;;
32319;SDS011;19080;51.750;5.888;2023-11-19T05:14:17;37.05;;;8.07;;
32319;SDS011;19080;51.750;5.888;2023-11-19T05:16:48;33.78;;;6.55;;
32319;SDS011;19080;51.750;5.888;2023-11-19T05:19:15;34.00;;;6.85;;
32319;SDS011;19080;51.750;5.888;2023-11-19T05:21:42;43.47;;;7.55;;
32319;SDS011;19080;51.750;5.888;2023-11-19T05:24:10;40.97;;;7.93;;
32319;SDS011;19080;51.750;5.888;2023-11-19T05:26:38;35.00;;;6.32;;
32319;SDS011;19080;51.750;5.888;2023-11-19T05:29:04;38.75;;;6.95;;
32319;SDS011;19080;51.750;5.888;2023-11-19T05:31:31;45.97;;;6.57;;
32319;SDS011;19080;51.750;5.888;2023-11-19T05:34:02;31.30;;;6.82;;
32319;SDS011;19080;51.750;5.888;2023-11-19T05:36:29;38.63;;;7.40;;
32319;SDS011;19080;51.750;5.888;2023-11-19T05:38:56;41.58;;;7.60;;
32319;SDS011;19080;51.750;5.888;2023-11-19T05:41:22;39.35;;;7.32;;
32319;SDS011;19080;51.750;5.888;2023-11-19T05:43:49;40.15;;;6.53;;
32319;SDS011;19080;51.750;5.888;2023-11-19T05:46:16;34.92;;;6.20;;
32319;SDS011;19080;51.750;5.888;2023-11-19T05:48:46;32.78;;;6.57;;
32319;SDS011;19080;51.750;5.888;2023-11-19T05:51:14;43.45;;;7.47;;
32319;SDS011;19080;51.750;5.888;2023-11-19T05:53:43;38.92;;;6.78;;
32319;SDS011;19080;51.750;5.888;2023-11-19T05:56:12;38.35;;;7.35;;
32319;SDS011;19080;51.750;5.888;2023-11-19T05:58:39;40.22;;;7.47;;
32319;SDS011;19080;51.750;5.888;2023-11-19T06:01:06;37.20;;;6.65;;
32319;SDS011;19080;51.750;5.888;2023-11-19T06:03:34;38.22;;;6.65;;
32319;SDS011;19080;51.750;5.888;2023-11-19T06:06:01;44.40;;;7.57;;
32319;SDS011;19080;51.750;5.888;2023-11-19T06:08:28;33.42;;;7.28;;
32319;SDS011;19080;51.750;5.888;2023-11-19T06:10:55;38.00;;;7.22;;
32319;SDS011;19080;51.750;5.888;2023-11-19T06:13:22;35.15;;;6.88;;
32319;SDS011;19080;51.750;5.888;2023-11-19T06:15:50;28.67;;;6.20;;
32319;SDS011;19080;51.750;5.888;2023-11-19T06:18:17;37.35;;;6.25;;
32319;SDS011;19080;51.750;5.888;2023-11-19T06:20:46;40.30;;;6.80;;
32319;SDS011;19080;51.750;5.888;2023-11-19T06:23:13;40.88;;;7.15;;
32319;SDS011;19080;51.750;5.888;2023-11-19T06:25:39;33.65;;;6.60;;
32319;SDS011;19080;51.750;5.888;2023-11-19T06:28:06;42.58;;;8.40;;
32319;SDS011;19080;51.750;5.888;2023-11-19T06:30:33;42.33;;;6.68;;
32319;SDS011;19080;51.750;5.888;2023-11-19T06:32:59;32.75;;;6.25;;
32319;SDS011;19080;51.750;5.888;2023-11-19T06:35:26;37.20;;;8.18;;
32319;SDS011;19080;51.750;5.888;2023-11-19T06:37:55;32.28;;;6.28;;
32319;SDS011;19080;51.750;5.888;2023-11-19T06:40:22;39.42;;;8.02;;
32319;SDS011;19080;51.750;5.888;2023-11-19T06:42:49;44.03;;;6.82;;
32319;SDS011;19080;51.750;5.888;2023-11-19T06:45:16;37.38;;;6.97;;
32319;SDS011;19080;51.750;5.888;2023-11-19T06:47:43;31.15;;;7.03;;
32319;SDS011;19080;51.750;5.888;2023-11-19T06:50:09;47.47;;;7.55;;
32319;SDS011;19080;51.750;5.888;2023-11-19T06:52:38;37.35;;;7.20;;
32319;SDS011;19080;51.750;5.888;2023-11-19T06:55:06;40.03;;;6.90;;
32319;SDS011;19080;51.750;5.888;2023-11-19T06:57:34;35.95;;;6.70;;
32319;SDS011;19080;51.750;5.888;2023-11-19T07:00:01;39.72;;;7.50;;
32319;SDS011;19080;51.750;5.888;2023-11-19T07:02:27;35.45;;;7.65;;
32319;SDS011;19080;51.750;5.888;2023-11-19T07:04:54;38.40;;;7.00;;
32319;SDS011;19080;51.750;5.888;2023-11-19T07:07:21;38.53;;;7.20;;
32319;SDS011;19080;51.750;5.888;2023-11-19T07:09:47;38.42;;;6.82;;
32319;SDS011;19080;51.750;5.888;2023-11-19T07:12:14;37.40;;;6.97;;
32319;SDS011;19080;51.750;5.888;2023-11-19T07:14:41;34.92;;;6.85;;
32319;SDS011;19080;51.750;5.888;2023-11-19T07:17:09;39.17;;;8.07;;
32319;SDS011;19080;51.750;5.888;2023-11-19T07:19:36;44.63;;;7.78;;
32319;SDS011;19080;51.750;5.888;2023-11-19T07:22:05;30.45;;;6.05;;
32319;SDS011;19080;51.750;5.888;2023-11-19T07:24:33;41.28;;;7.00;;
32319;SDS011;19080;51.750;5.888;2023-11-19T07:27:00;46.80;;;7.85;;
32319;SDS011;19080;51.750;5.888;2023-11-19T07:29:27;35.05;;;7.75;;
32319;SDS011;19080;51.750;5.888;2023-11-19T07:31:55;35.00;;;7.10;;
32319;SDS011;19080;51.750;5.888;2023-11-19T07:34:24;33.35;;;6.68;;
32319;SDS011;19080;51.750;5.888;2023-11-19T07:36:51;40.47;;;6.35;;
32319;SDS011;19080;51.750;5.888;2023-11-19T07:39:18;33.47;;;7.60;;
32319;SDS011;19080;51.750;5.888;2023-11-19T07:41:47;36.25;;;6.88;;
32319;SDS011;19080;51.750;5.888;2023-11-19T07:44:14;38.10;;;5.97;;
32319;SDS011;19080;51.750;5.888;2023-11-19T07:46:40;40.08;;;7.03;;
32319;SDS011;19080;51.750;5.888;2023-11-19T07:49:08;41.40;;;9.40;;
32319;SDS011;19080;51.750;5.888;2023-11-19T07:51:36;43.20;;;9.50;;
32319;SDS011;19080;51.750;5.888;2023-11-19T07:54:03;40.00;;;7.78;;
32319;SDS011;19080;51.750;5.888;2023-11-19T07:56:31;38.80;;;7.63;;
32319;SDS011;19080;51.750;5.888;2023-11-19T07:59:01;36.42;;;7.28;;
32319;SDS011;19080;51.750;5.888;2023-11-19T08:01:28;41.63;;;7.88;;
32319;SDS011;19080;51.750;5.888;2023-11-19T08:03:55;40.95;;;7.00;;
32319;SDS011;19080;51.750;5.888;2023-11-19T08:06:26;40.55;;;7.60;;
32319;SDS011;19080;51.750;5.888;2023-11-19T08:08:53;39.72;;;7.07;;
32319;SDS011;19080;51.750;5.888;2023-11-19T08:11:19;33.72;;;6.75;;
32319;SDS011;19080;51.750;5.888;2023-11-19T08:13:46;29.13;;;7.22;;
32319;SDS011;19080;51.750;5.888;2023-11-19T08:16:13;37.20;;;7.00;;
32319;SDS011;19080;51.750;5.888;2023-11-19T08:18:44;38.28;;;7.47;;
32319;SDS011;19080;51.750;5.888;2023-11-19T08:21:11;40.70;;;6.90;;
32319;SDS011;19080;51.750;5.888;2023-11-19T08:23:37;38.17;;;6.97;;
32319;SDS011;19080;51.750;5.888;2023-11-19T08:26:05;37.10;;;7.57;;
32319;SDS011;19080;51.750;5.888;2023-11-19T08:28:32;25.08;;;5.93;;
32319;SDS011;19080;51.750;5.888;2023-11-19T08:31:01;34.22;;;7.28;;
32319;SDS011;19080;51.750;5.888;2023-11-19T08:33:30;36.80;;;7.85;;
32319;SDS011;19080;51.750;5.888;2023-11-19T08:35:57;42.45;;;8.02;;
32319;SDS011;19080;51.750;5.888;2023-11-19T08:38:24;32.65;;;6.40;;
32319;SDS011;19080;51.750;5.888;2023-11-19T08:40:54;39.35;;;7.15;;
32319;SDS011;19080;51.750;5.888;2023-11-19T08:43:26;34.67;;;6.53;;
32319;SDS011;19080;51.750;5.888;2023-11-19T08:45:53;32.65;;;7.00;;
32319;SDS011;19080;51.750;5.888;2023-11-19T08:48:20;36.45;;;7.47;;
32319;SDS011;19080;51.750;5.888;2023-11-19T08:50:47;32.22;;;7.22;;
32319;SDS011;19080;51.750;5.888;2023-11-19T08:53:14;36.15;;;6.97;;
32319;SDS011;19080;51.750;5.888;2023-11-19T08:55:41;40.30;;;7.82;;
32319;SDS011;19080;51.750;5.888;2023-11-19T08:58:08;30.33;;;5.90;;
32319;SDS011;19080;51.750;5.888;2023-11-19T09:00:35;34.97;;;7.47;;
32319;SDS011;19080;51.750;5.888;2023-11-19T09:03:01;35.55;;;7.53;;
32319;SDS011;19080;51.750;5.888;2023-11-19T09:05:29;38.92;;;7.53;;
32319;SDS011;19080;51.750;5.888;2023-11-19T09:07:55;32.55;;;7.07;;
32319;SDS011;19080;51.750;5.888;2023-11-19T09:10:22;29.40;;;6.90;;
32319;SDS011;19080;51.750;5.888;2023-11-19T09:12:48;38.30;;;6.05;;
32319;SDS011;19080;51.750;5.888;2023-11-19T09:15:15;33.72;;;6.43;;
32319;SDS011;19080;51.750;5.888;2023-11-19T09:17:42;33.20;;;6.50;;
32319;SDS011;19080;51.750;5.888;2023-11-19T09:20:09;32.65;;;6.57;;
32319;SDS011;19080;51.750;5.888;2023-11-19T09:22:38;32.90;;;7.97;;
32319;SDS011;19080;51.750;5.888;2023-11-19T09:25:05;33.40;;;6.25;;
32319;SDS011;19080;51.750;5.888;2023-11-19T09:27:32;33.10;;;7.50;;
32319;SDS011;19080;51.750;5.888;2023-11-19T09:29:58;39.50;;;8.55;;
32319;SDS011;19080;51.750;5.888;2023-11-19T09:32:25;39.75;;;7.25;;
32319;SDS011;19080;51.750;5.888;2023-11-19T09:34:52;46.15;;;7.35;;
32319;SDS011;19080;51.750;5.888;2023-11-19T09:37:19;39.20;;;8.23;;
32319;SDS011;19080;51.750;5.888;2023-11-19T09:39:48;38.22;;;7.57;;
32319;SDS011;19080;51.750;5.888;2023-11-19T09:42:14;51.10;;;13.50;;
32319;SDS011;19080;51.750;5.888;2023-11-19T09:44:42;45.25;;;8.65;;
32319;SDS011;19080;51.750;5.888;2023-11-19T09:47:10;37.60;;;7.05;;
32319;SDS011;19080;51.750;5.888;2023-11-19T09:49:38;38.95;;;8.95;;
32319;SDS011;19080;51.750;5.888;2023-11-19T09:52:05;41.35;;;8.05;;
32319;SDS011;19080;51.750;5.888;2023-11-19T09:54:32;41.05;;;8.52;;
32319;SDS011;19080;51.750;5.888;2023-11-19T09:56:59;35.40;;;8.88;;
32319;SDS011;19080;51.750;5.888;2023-11-19T09:59:29;46.72;;;12.05;;
32319;SDS011;19080;51.750;5.888;2023-11-19T10:01:57;40.40;;;8.38;;
32319;SDS011;19080;51.750;5.888;2023-11-19T10:04:24;39.17;;;8.70;;
32319;SDS011;19080;51.750;5.888;2023-11-19T10:06:55;42.72;;;9.65;;
32319;SDS011;19080;51.750;5.888;2023-11-19T10:09:22;49.13;;;7.63;;
32319;SDS011;19080;51.750;5.888;2023-11-19T10:11:49;39.50;;;8.82;;
32319;SDS011;19080;51.750;5.888;2023-11-19T10:14:16;45.88;;;9.50;;
32319;SDS011;19080;51.750;5.888;2023-11-19T10:16:47;35.47;;;8.13;;
32319;SDS011;19080;51.750;5.888;2023-11-19T10:19:20;38.40;;;8.35;;
32319;SDS011;19080;51.750;5.888;2023-11-19T10:21:47;43.45;;;7.38;;
32319;SDS011;19080;51.750;5.888;2023-11-19T10:24:14;28.60;;;6.45;;
32319;SDS011;19080;51.750;5.888;2023-11-19T10:26:59;39.85;;;8.30;;
32319;SDS011;19080;51.750;5.888;2023-11-19T10:29:27;33.15;;;6.68;;
32319;SDS011;19080;51.750;5.888;2023-11-19T10:31:56;31.35;;;7.68;;
32319;SDS011;19080;51.750;5.888;2023-11-19T10:34:43;36.67;;;6.50;;
32319;SDS011;19080;51.750;5.888;2023-11-19T10:37:26;32.05;;;7.07;;
32319;SDS011;19080;51.750;5.888;2023-11-19T10:39:54;33.95;;;6.75;;
32319;SDS011;19080;51.750;5.888;2023-11-19T10:42:21;42.33;;;6.45;;
32319;SDS011;19080;51.750;5.888;2023-11-19T10:44:48;31.77;;;6.60;;
32319;SDS011;19080;51.750;5.888;2023-11-19T10:47:16;33.10;;;6.63;;
32319;SDS011;19080;51.750;5.888;2023-11-19T10:49:45;37.33;;;7.57;;
32319;SDS011;19080;51.750;5.888;2023-11-19T10:52:12;38.42;;;7.20;;
32319;SDS011;19080;51.750;5.888;2023-11-19T10:57:16;37.60;;;6.88;;
32319;SDS011;19080;51.750;5.888;2023-11-19T10:59:48;39.80;;;7.28;;
32319;SDS011;19080;51.750;5.888;2023-11-19T11:02:17;32.83;;;5.90;;
32319;SDS011;19080;51.750;5.888;2023-11-19T11:04:47;34.80;;;6.82;;
32319;SDS011;19080;51.750;5.888;2023-11-19T11:07:16;24.55;;;5.88;;
32319;SDS011;19080;51.750;5.888;2023-11-19T11:09:52;36.10;;;6.65;;
32319;SDS011;19080;51.750;5.888;2023-11-19T11:12:21;32.45;;;6.13;;
32319;SDS011;19080;51.750;5.888;2023-11-19T11:14:50;30.08;;;6.18;;
32319;SDS011;19080;51.750;5.888;2023-11-19T11:17:17;34.30;;;6.70;;
32319;SDS011;19080;51.750;5.888;2023-11-19T11:19:45;29.73;;;5.93;;
32319;SDS011;19080;51.750;5.888;2023-11-19T11:22:12;34.10;;;7.28;;
32319;SDS011;19080;51.750;5.888;2023-11-19T11:25:21;32.90;;;5.93;;
32319;SDS011;19080;51.750;5.888;2023-11-19T11:28:04;35.17;;;6.47;;
32319;SDS011;19080;51.750;5.888;2023-11-19T11:33:32;40.15;;;7.80;;
32319;SDS011;19080;51.750;5.888;2023-11-19T11:38:42;30.48;;;6.45;;
32319;SDS011;19080;51.750;5.888;2023-11-19T11:41:18;29.88;;;6.40;;
32319;SDS011;19080;51.750;5.888;2023-11-19T11:43:50;33.72;;;6.72;;
32319;SDS011;19080;51.750;5.888;2023-11-19T11:49:05;34.97;;;5.90;;
32319;SDS011;19080;51.750;5.888;2023-11-19T11:54:09;28.00;;;6.10;;
32319;SDS011;19080;51.750;5.888;2023-11-19T11:56:37;30.55;;;6.72;;
32319;SDS011;19080;51.750;5.888;2023-11-19T11:59:07;28.83;;;6.00;;
32319;SDS011;19080;51.750;5.888;2023-11-19T12:01:59;39.63;;;6.80;;
32319;SDS011;19080;51.750;5.888;2023-11-19T12:04:29;31.55;;;6.38;;
32319;SDS011;19080;51.750;5.888;2023-11-19T12:07:11;28.23;;;6.18;;
32319;SDS011;19080;51.750;5.888;2023-11-19T12:09:43;30.00;;;6.40;;
32319;SDS011;19080;51.750;5.888;2023-11-19T12:20:01;27.30;;;5.78;;
32319;SDS011;19080;51.750;5.888;2023-11-19T12:22:29;22.08;;;5.25;;
32319;SDS011;19080;51.750;5.888;2023-11-19T12:24:56;26.40;;;5.22;;
32319;SDS011;19080;51.750;5.888;2023-11-19T12:27:22;18.70;;;4.47;;
32319;SDS011;19080;51.750;5.888;2023-11-19T12:29:49;26.33;;;5.60;;
32319;SDS011;19080;51.750;5.888;2023-11-19T12:32:16;21.30;;;4.90;;
32319;SDS011;19080;51.750;5.888;2023-11-19T12:34:44;20.13;;;4.05;;
32319;SDS011;19080;51.750;5.888;2023-11-19T12:37:11;23.38;;;5.35;;
32319;SDS011;19080;51.750;5.888;2023-11-19T12:39:38;25.60;;;5.75;;
32319;SDS011;19080;51.750;5.888;2023-11-19T12:42:05;39.38;;;6.68;;
32319;SDS011;19080;51.750;5.888;2023-11-19T12:44:31;24.40;;;5.90;;
32319;SDS011;19080;51.750;5.888;2023-11-19T12:47:04;25.58;;;5.10;;
32319;SDS011;19080;51.750;5.888;2023-11-19T12:49:33;19.65;;;4.82;;
32319;SDS011;19080;51.750;5.888;2023-11-19T12:52:00;21.88;;;4.82;;
32319;SDS011;19080;51.750;5.888;2023-11-19T12:54:34;36.67;;;6.53;;
32319;SDS011;19080;51.750;5.888;2023-11-19T12:57:02;26.15;;;6.20;;
32319;SDS011;19080;51.750;5.888;2023-11-19T12:59:31;24.73;;;6.90;;
32319;SDS011;19080;51.750;5.888;2023-11-19T13:01:58;32.05;;;6.78;;
32319;SDS011;19080;51.750;5.888;2023-11-19T13:04:28;27.80;;;6.05;;
32319;SDS011;19080;51.750;5.888;2023-11-19T13:06:59;26.27;;;4.60;;
32319;SDS011;19080;51.750;5.888;2023-11-19T13:09:29;30.45;;;5.72;;
32319;SDS011;19080;51.750;5.888;2023-11-19T13:11:56;20.70;;;5.15;;
32319;SDS011;19080;51.750;5.888;2023-11-19T13:14:23;24.50;;;4.88;;
32319;SDS011;19080;51.750;5.888;2023-11-19T13:16:49;23.05;;;4.88;;
32319;SDS011;19080;51.750;5.888;2023-11-19T13:19:16;28.38;;;6.07;;
32319;SDS011;19080;51.750;5.888;2023-11-19T13:21:45;19.60;;;4.97;;
32319;SDS011;19080;51.750;5.888;2023-11-19T13:24:13;21.92;;;5.35;;
32319;SDS011;19080;51.750;5.888;2023-11-19T13:26:40;23.63;;;5.45;;
32319;SDS011;19080;51.750;5.888;2023-11-19T13:29:07;24.15;;;6.35;;
32319;SDS011;19080;51.750;5.888;2023-11-19T13:31:34;24.80;;;6.03;;
32319;SDS011;19080;51.750;5.888;2023-11-19T13:34:01;27.63;;;5.80;;
32319;SDS011;19080;51.750;5.888;2023-11-19T13:36:28;34.33;;;6.25;;
32319;SDS011;19080;51.750;5.888;2023-11-19T13:38:55;30.15;;;5.90;;
32319;SDS011;19080;51.750;5.888;2023-11-19T13:41:26;28.38;;;6.05;;
32319;SDS011;19080;51.750;5.888;2023-11-19T13:43:52;26.52;;;5.22;;
32319;SDS011;19080;51.750;5.888;2023-11-19T13:46:20;32.60;;;5.90;;
32319;SDS011;19080;51.750;5.888;2023-11-19T13:48:47;28.10;;;5.38;;
32319;SDS011;19080;51.750;5.888;2023-11-19T13:51:15;30.38;;;6.53;;
32319;SDS011;19080;51.750;5.888;2023-11-19T13:53:43;20.92;;;5.03;;
32319;SDS011;19080;51.750;5.888;2023-11-19T13:56:12;27.25;;;5.57;;
32319;SDS011;19080;51.750;5.888;2023-11-19T13:58:39;22.70;;;4.65;;
32319;SDS011;19080;51.750;5.888;2023-11-19T14:01:07;20.08;;;4.68;;
32319;SDS011;19080;51.750;5.888;2023-11-19T14:03:34;26.48;;;5.60;;
32319;SDS011;19080;51.750;5.888;2023-11-19T14:06:01;30.08;;;6.55;;
32319;SDS011;19080;51.750;5.888;2023-11-19T14:08:28;29.85;;;6.43;;
32319;SDS011;19080;51.750;5.888;2023-11-19T14:10:54;28.42;;;5.50;;
32319;SDS011;19080;51.750;5.888;2023-11-19T14:13:23;26.30;;;5.95;;
32319;SDS011;19080;51.750;5.888;2023-11-19T14:15:50;25.00;;;4.68;;
32319;SDS011;19080;51.750;5.888;2023-11-19T14:18:17;26.70;;;5.40;;
32319;SDS011;19080;51.750;5.888;2023-11-19T14:20:45;29.45;;;4.95;;
32319;SDS011;19080;51.750;5.888;2023-11-19T14:23:12;21.05;;;4.78;;
32319;SDS011;19080;51.750;5.888;2023-11-19T14:25:38;28.63;;;4.72;;
32319;SDS011;19080;51.750;5.888;2023-11-19T14:28:05;22.70;;;4.65;;
32319;SDS011;19080;51.750;5.888;2023-11-19T14:30:32;26.10;;;4.82;;
32319;SDS011;19080;51.750;5.888;2023-11-19T14:33:01;26.17;;;5.05;;
32319;SDS011;19080;51.750;5.888;2023-11-19T14:35:28;21.27;;;4.63;;
32319;SDS011;19080;51.750;5.888;2023-11-19T14:37:56;25.40;;;4.82;;
32319;SDS011;19080;51.750;5.888;2023-11-19T14:40:23;22.92;;;5.00;;
32319;SDS011;19080;51.750;5.888;2023-11-19T14:43:08;18.90;;;4.47;;
32319;SDS011;19080;51.750;5.888;2023-11-19T14:45:37;18.85;;;4.95;;
32319;SDS011;19080;51.750;5.888;2023-11-19T14:48:15;23.85;;;5.32;;
32319;SDS011;19080;51.750;5.888;2023-11-19T14:50:41;21.83;;;5.10;;
32319;SDS011;19080;51.750;5.888;2023-11-19T14:53:08;26.33;;;4.88;;
32319;SDS011;19080;51.750;5.888;2023-11-19T14:55:34;17.02;;;5.03;;
32319;SDS011;19080;51.750;5.888;2023-11-19T14:58:01;25.08;;;4.43;;
32319;SDS011;19080;51.750;5.888;2023-11-19T15:00:35;22.58;;;5.07;;
32319;SDS011;19080;51.750;5.888;2023-11-19T15:03:02;20.30;;;4.82;;